sensor_id;sensor_type;location;lat;lon;timestamp;pressure;altitude;pressure_sealevel;temperature;humidity
14612;BME280;7392;52.078;11.650;2023-01-29T00:00:12;102111.72;;;-3.67;100.00
14612;BME280;7392;52.078;11.650;2023-01-29T00:02:41;102106.41;;;-3.68;100.00
14612;BME280;7392;52.078;11.650;2023-01-29T00:05:08;102095.78;;;-3.71;100.00
14612;BME280;7392;52.078;11.650;2023-01-29T00:07:54;102096.53;;;-3.72;100.00
14612;BME280;7392;52.078;11.650;2023-01-29T00:10:21;102097.22;;;-3.75;100.00
14612;BME280;7392;52.078;11.650;2023-01-29T00:12:49;102098.81;;;-3.77;100.00
14612;BME280;7392;52.078;11.650;2023-01-29T00:15:18;102085.72;;;-3.79;100.00
14612;BME280;7392;52.078;11.650;2023-01-29T00:17:46;102081.28;;;-3.80;100.00
14612;BME280;7392;52.078;11.650;2023-01-29T00:20:13;102081.16;;;-3.81;100.00
14612;BME280;7392;52.078;11.650;2023-01-29T00:22:42;102081.97;;;-3.82;100.00
14612;BME280;7392;52.078;11.650;2023-01-29T00:25:10;102074.94;;;-3.83;100.00
14612;BME280;7392;52.078;11.650;2023-01-29T00:27:38;102072.34;;;-3.83;100.00
14612;BME280;7392;52.078;11.650;2023-01-29T00:30:07;102062.78;;;-3.84;100.00
14612;BME280;7392;52.078;11.650;2023-01-29T00:32:39;102065.13;;;-3.87;100.00
14612;BME280;7392;52.078;11.650;2023-01-29T00:35:07;102059.81;;;-3.89;100.00
14612;BME280;7392;52.078;11.650;2023-01-29T00:37:35;102060.59;;;-3.90;100.00
14612;BME280;7392;52.078;11.650;2023-01-29T00:40:04;102061.28;;;-3.92;100.00
14612;BME280;7392;52.078;11.650;2023-01-29T00:42:33;102063.88;;;-3.92;100.00
14612;BME280;7392;52.078;11.650;2023-01-29T00:45:19;102045.56;;;-3.94;100.00
14612;BME280;7392;52.078;11.650;2023-01-29T00:47:46;102042.09;;;-3.95;100.00
14612;BME280;7392;52.078;11.650;2023-01-29T00:50:14;102035.06;;;-3.96;100.00
14612;BME280;7392;52.078;11.650;2023-01-29T00:52:42;102040.25;;;-3.96;100.00
14612;BME280;7392;52.078;11.650;2023-01-29T00:55:10;102030.66;;;-3.97;100.00
14612;BME280;7392;52.078;11.650;2023-01-29T00:57:39;102027.81;;;-4.00;100.00
14612;BME280;7392;52.078;11.650;2023-01-29T01:00:09;102033.81;;;-4.01;100.00
14612;BME280;7392;52.078;11.650;2023-01-29T01:02:37;102036.28;;;-4.02;100.00
14612;BME280;7392;52.078;11.650;2023-01-29T01:05:22;102027.47;;;-4.04;100.00
14612;BME280;7392;52.078;11.650;2023-01-29T01:07:54;102027.47;;;-4.04;100.00
14612;BME280;7392;52.078;11.650;2023-01-29T01:10:24;102029.06;;;-4.06;100.00
14612;BME280;7392;52.078;11.650;2023-01-29T01:12:55;102028.00;;;-4.08;100.00
14612;BME280;7392;52.078;11.650;2023-01-29T01:15:25;102034.25;;;-4.06;100.00
14612;BME280;7392;52.078;11.650;2023-01-29T01:17:53;102036.72;;;-4.08;100.00
14612;BME280;7392;52.078;11.650;2023-01-29T01:20:21;102027.13;;;-4.09;100.00
14612;BME280;7392;52.078;11.650;2023-01-29T01:22:50;102022.03;;;-4.07;100.00
14612;BME280;7392;52.078;11.650;2023-01-29T01:25:19;102031.66;;;-4.06;100.00
14612;BME280;7392;52.078;11.650;2023-01-29T01:27:51;102030.06;;;-4.04;100.00
14612;BME280;7392;52.078;11.650;2023-01-29T01:30:20;102022.41;;;-4.03;100.00
14612;BME280;7392;52.078;11.650;2023-01-29T01:32:48;102014.75;;;-4.01;100.00
14612;BME280;7392;52.078;11.650;2023-01-29T01:35:16;102018.47;;;-3.98;100.00
14612;BME280;7392;52.078;11.650;2023-01-29T01:37:43;102023.78;;;-3.96;100.00
14612;BME280;7392;52.078;11.650;2023-01-29T01:40:13;102024.13;;;-3.91;100.00
14612;BME280;7392;52.078;11.650;2023-01-29T01:42:46;102015.66;;;-3.89;100.00
14612;BME280;7392;52.078;11.650;2023-01-29T01:45:18;102017.59;;;-3.86;100.00
14612;BME280;7392;52.078;11.650;2023-01-29T01:47:50;102038.72;;;-3.82;100.00
14612;BME280;7392;52.078;11.650;2023-01-29T01:50:21;102043.34;;;-3.78;100.00
14612;BME280;7392;52.078;11.650;2023-01-29T01:52:52;102038.50;;;-3.73;100.00
14612;BME280;7392;52.078;11.650;2023-01-29T01:55:24;102037.03;;;-3.69;100.00
14612;BME280;7392;52.078;11.650;2023-01-29T01:57:55;102031.44;;;-3.64;100.00
14612;BME280;7392;52.078;11.650;2023-01-29T02:00:25;102038.66;;;-3.60;100.00
14612;BME280;7392;52.078;11.650;2023-01-29T02:02:54;102033.81;;;-3.55;100.00
14612;BME280;7392;52.078;11.650;2023-01-29T02:05:39;102027.94;;;-3.52;100.00
14612;BME280;7392;52.078;11.650;2023-01-29T02:08:30;102024.88;;;-3.47;100.00
14612;BME280;7392;52.078;11.650;2023-01-29T02:11:16;102026.03;;;-3.43;100.00
14612;BME280;7392;52.078;11.650;2023-01-29T02:13:44;102014.06;;;-3.41;100.00
14612;BME280;7392;52.078;11.650;2023-01-29T02:16:12;102020.38;;;-3.38;100.00
14612;BME280;7392;52.078;11.650;2023-01-29T02:18:41;102011.13;;;-3.34;100.00
14612;BME280;7392;52.078;11.650;2023-01-29T02:21:35;102005.47;;;-3.28;100.00
14612;BME280;7392;52.078;11.650;2023-01-29T02:24:21;102003.97;;;-3.25;100.00
14612;BME280;7392;52.078;11.650;2023-01-29T02:26:57;102001.75;;;-3.20;100.00
14612;BME280;7392;52.078;11.650;2023-01-29T02:29:36;102000.38;;;-3.15;100.00
14612;BME280;7392;52.078;11.650;2023-01-29T02:32:14;101997.22;;;-3.11;100.00
14612;BME280;7392;52.078;11.650;2023-01-29T02:34:51;101993.16;;;-3.07;100.00
14612;BME280;7392;52.078;11.650;2023-01-29T02:37:45;101988.25;;;-3.03;100.00
14612;BME280;7392;52.078;11.650;2023-01-29T02:40:23;101988.59;;;-2.98;100.00
14612;BME280;7392;52.078;11.650;2023-01-29T02:42:58;101991.44;;;-2.95;100.00
14612;BME280;7392;52.078;11.650;2023-01-29T02:45:32;101999.56;;;-2.90;100.00
14612;BME280;7392;52.078;11.650;2023-01-29T02:48:02;101994.69;;;-2.86;100.00
14612;BME280;7392;52.078;11.650;2023-01-29T02:50:33;101985.28;;;-2.84;100.00
14612;BME280;7392;52.078;11.650;2023-01-29T02:53:08;101991.63;;;-2.80;100.00
14612;BME280;7392;52.078;11.650;2023-01-29T02:55:40;101986.53;;;-2.78;100.00
14612;BME280;7392;52.078;11.650;2023-01-29T02:58:13;101998.06;;;-2.75;100.00
14612;BME280;7392;52.078;11.650;2023-01-29T03:00:46;101992.16;;;-2.72;100.00
14612;BME280;7392;52.078;11.650;2023-01-29T03:03:17;102002.81;;;-2.69;100.00
14612;BME280;7392;52.078;11.650;2023-01-29T03:05:50;102001.22;;;-2.67;100.00
14612;BME280;7392;52.078;11.650;2023-01-29T03:08:27;101997.81;;;-2.66;100.00
14612;BME280;7392;52.078;11.650;2023-01-29T03:11:04;102008.34;;;-2.65;100.00
14612;BME280;7392;52.078;11.650;2023-01-29T03:13:41;102006.84;;;-2.61;100.00
14612;BME280;7392;52.078;11.650;2023-01-29T03:16:17;102003.44;;;-2.60;100.00
14612;BME280;7392;52.078;11.650;2023-01-29T03:18:50;102007.09;;;-2.58;100.00
14612;BME280;7392;52.078;11.650;2023-01-29T03:21:24;102013.28;;;-2.56;100.00
14612;BME280;7392;52.078;11.650;2023-01-29T03:24:11;102017.00;;;-2.52;100.00
14612;BME280;7392;52.078;11.650;2023-01-29T03:27:01;102013.72;;;-2.50;100.00
14612;BME280;7392;52.078;11.650;2023-01-29T03:29:48;102012.94;;;-2.49;100.00
14612;BME280;7392;52.078;11.650;2023-01-29T03:32:47;102017.44;;;-2.46;100.00
14612;BME280;7392;52.078;11.650;2023-01-29T03:35:20;102006.34;;;-2.43;100.00
14612;BME280;7392;52.078;11.650;2023-01-29T03:37:59;102002.16;;;-2.41;100.00
14612;BME280;7392;52.078;11.650;2023-01-29T03:40:28;101999.66;;;-2.40;100.00
14612;BME280;7392;52.078;11.650;2023-01-29T03:43:08;101998.88;;;-2.39;100.00
14612;BME280;7392;52.078;11.650;2023-01-29T03:45:45;102003.47;;;-2.35;100.00
14612;BME280;7392;52.078;11.650;2023-01-29T03:48:25;101985.25;;;-2.35;100.00
14612;BME280;7392;52.078;11.650;2023-01-29T03:50:59;101992.41;;;-2.32;100.00
14612;BME280;7392;52.078;11.650;2023-01-29T03:53:40;101998.50;;;-2.32;100.00
14612;BME280;7392;52.078;11.650;2023-01-29T03:56:20;101991.69;;;-2.30;100.00
14612;BME280;7392;52.078;11.650;2023-01-29T03:58:55;101986.69;;;-2.27;100.00
14612;BME280;7392;52.078;11.650;2023-01-29T04:01:40;101982.50;;;-2.24;100.00
14612;BME280;7392;52.078;11.650;2023-01-29T04:04:20;101977.41;;;-2.23;100.00
14612;BME280;7392;52.078;11.650;2023-01-29T04:06:51;101979.22;;;-2.22;100.00
14612;BME280;7392;52.078;11.650;2023-01-29T04:09:22;101969.81;;;-2.20;100.00
14612;BME280;7392;52.078;11.650;2023-01-29T04:11:54;101969.09;;;-2.17;100.00
14612;BME280;7392;52.078;11.650;2023-01-29T04:14:25;101964.91;;;-2.15;100.00
14612;BME280;7392;52.078;11.650;2023-01-29T04:16:56;101957.19;;;-2.14;100.00
14612;BME280;7392;52.078;11.650;2023-01-29T04:19:33;101950.41;;;-2.12;100.00
14612;BME280;7392;52.078;11.650;2023-01-29T04:22:04;101941.78;;;-2.11;100.00
14612;BME280;7392;52.078;11.650;2023-01-29T04:24:33;101932.38;;;-2.09;100.00
14612;BME280;7392;52.078;11.650;2023-01-29T04:27:11;101932.38;;;-2.09;100.00
14612;BME280;7392;52.078;11.650;2023-01-29T04:29:52;101916.84;;;-2.07;100.00
14612;BME280;7392;52.078;11.650;2023-01-29T04:32:27;101907.38;;;-2.07;100.00
14612;BME280;7392;52.078;11.650;2023-01-29T04:35:09;101906.53;;;-2.05;100.00
14612;BME280;7392;52.078;11.650;2023-01-29T04:37:49;101913.56;;;-2.04;100.00
14612;BME280;7392;52.078;11.650;2023-01-29T04:40:22;101909.97;;;-2.07;100.00
14612;BME280;7392;52.078;11.650;2023-01-29T04:43:01;101909.03;;;-2.07;100.00
14612;BME280;7392;52.078;11.650;2023-01-29T04:45:37;101907.38;;;-2.07;100.00
14612;BME280;7392;52.078;11.650;2023-01-29T04:48:18;101909.97;;;-2.07;100.00
14612;BME280;7392;52.078;11.650;2023-01-29T04:50:55;101892.53;;;-2.08;100.00
14612;BME280;7392;52.078;11.650;2023-01-29T04:53:27;101888.91;;;-2.10;100.00
14612;BME280;7392;52.078;11.650;2023-01-29T04:56:06;101875.78;;;-2.11;100.00
14612;BME280;7392;52.078;11.650;2023-01-29T04:58:39;101876.59;;;-2.12;100.00
14612;BME280;7392;52.078;11.650;2023-01-29T05:01:12;101877.41;;;-2.13;100.00
14612;BME280;7392;52.078;11.650;2023-01-29T05:03:43;101874.69;;;-2.15;100.00
14612;BME280;7392;52.078;11.650;2023-01-29T05:06:15;101871.09;;;-2.17;100.00
14612;BME280;7392;52.078;11.650;2023-01-29T05:08:45;101872.75;;;-2.17;100.00
14612;BME280;7392;52.078;11.650;2023-01-29T05:11:14;101865.66;;;-2.20;100.00
14612;BME280;7392;52.078;11.650;2023-01-29T05:13:42;101858.53;;;-2.22;100.00
14612;BME280;7392;52.078;11.650;2023-01-29T05:16:13;101855.03;;;-2.23;100.00
14612;BME280;7392;52.078;11.650;2023-01-29T05:18:43;101864.47;;;-2.25;100.00
14612;BME280;7392;52.078;11.650;2023-01-29T05:21:11;101866.97;;;-2.27;100.00
14612;BME280;7392;52.078;11.650;2023-01-29T05:23:40;101867.75;;;-2.28;100.00
14612;BME280;7392;52.078;11.650;2023-01-29T05:26:18;101867.75;;;-2.28;100.00
14612;BME280;7392;52.078;11.650;2023-01-29T05:29:05;101865.13;;;-2.28;100.00
14612;BME280;7392;52.078;11.650;2023-01-29T05:31:32;101860.03;;;-2.26;100.00
14612;BME280;7392;52.078;11.650;2023-01-29T05:34:00;101860.94;;;-2.26;100.00
14612;BME280;7392;52.078;11.650;2023-01-29T05:36:27;101854.16;;;-2.23;100.00
14612;BME280;7392;52.078;11.650;2023-01-29T05:38:57;101849.84;;;-2.23;100.00
14612;BME280;7392;52.078;11.650;2023-01-29T05:41:24;101864.75;;;-2.20;100.00
14612;BME280;7392;52.078;11.650;2023-01-29T05:43:56;101860.47;;;-2.20;100.00
14612;BME280;7392;52.078;11.650;2023-01-29T05:46:23;101861.47;;;-2.18;100.00
14612;BME280;7392;52.078;11.650;2023-01-29T05:48:51;101864.16;;;-2.16;100.00
14612;BME280;7392;52.078;11.650;2023-01-29T05:51:19;101866.88;;;-2.15;100.00
14612;BME280;7392;52.078;11.650;2023-01-29T05:53:47;101869.47;;;-2.15;100.00
14612;BME280;7392;52.078;11.650;2023-01-29T05:56:16;101873.88;;;-2.14;100.00
14612;BME280;7392;52.078;11.650;2023-01-29T05:58:43;101868.66;;;-2.14;100.00
14612;BME280;7392;52.078;11.650;2023-01-29T06:01:13;101877.50;;;-2.12;100.00
14612;BME280;7392;52.078;11.650;2023-01-29T06:03:41;101882.72;;;-2.12;100.00
14612;BME280;7392;52.078;11.650;2023-01-29T06:06:09;101886.22;;;-2.11;100.00
14612;BME280;7392;52.078;11.650;2023-01-29T06:08:36;101888.22;;;-2.07;100.00
14612;BME280;7392;52.078;11.650;2023-01-29T06:11:06;101890.91;;;-2.05;100.00
14612;BME280;7392;52.078;11.650;2023-01-29T06:13:36;101889.19;;;-2.05;100.00
14612;BME280;7392;52.078;11.650;2023-01-29T06:16:04;101890.25;;;-2.03;100.00
14612;BME280;7392;52.078;11.650;2023-01-29T06:18:34;101890.34;;;-2.01;100.00
14612;BME280;7392;52.078;11.650;2023-01-29T06:21:03;101893.03;;;-2.00;100.00
14612;BME280;7392;52.078;11.650;2023-01-29T06:23:31;101910.47;;;-1.99;100.00
14612;BME280;7392;52.078;11.650;2023-01-29T06:25:59;101921.88;;;-1.97;100.00
14612;BME280;7392;52.078;11.650;2023-01-29T06:28:27;101914.88;;;-1.98;100.00
14612;BME280;7392;52.078;11.650;2023-01-29T06:30:58;101926.31;;;-1.96;100.00
14612;BME280;7392;52.078;11.650;2023-01-29T06:33:45;101940.22;;;-1.95;100.00
14612;BME280;7392;52.078;11.650;2023-01-29T06:36:13;101940.31;;;-1.94;100.00
14612;BME280;7392;52.078;11.650;2023-01-29T06:38:40;101947.34;;;-1.93;100.00
14612;BME280;7392;52.078;11.650;2023-01-29T06:41:09;101945.63;;;-1.92;100.00
14612;BME280;7392;52.078;11.650;2023-01-29T06:43:37;101944.84;;;-1.91;100.00
14612;BME280;7392;52.078;11.650;2023-01-29T06:46:07;101942.34;;;-1.90;100.00
14612;BME280;7392;52.078;11.650;2023-01-29T06:48:34;101945.97;;;-1.88;100.00
14612;BME280;7392;52.078;11.650;2023-01-29T06:51:03;101938.25;;;-1.86;100.00
14612;BME280;7392;52.078;11.650;2023-01-29T06:53:32;101934.94;;;-1.83;100.00
14612;BME280;7392;52.078;11.650;2023-01-29T06:55:59;101929.03;;;-1.81;100.00
14612;BME280;7392;52.078;11.650;2023-01-29T06:58:27;101937.75;;;-1.80;100.00
14612;BME280;7392;52.078;11.650;2023-01-29T07:01:01;101932.75;;;-1.77;100.00
14612;BME280;7392;52.078;11.650;2023-01-29T07:03:30;101932.03;;;-1.75;100.00
14612;BME280;7392;52.078;11.650;2023-01-29T07:05:58;101933.75;;;-1.75;100.00
14612;BME280;7392;52.078;11.650;2023-01-29T07:08:26;101933.97;;;-1.72;100.00
14612;BME280;7392;52.078;11.650;2023-01-29T07:10:57;101929.75;;;-1.70;100.00
14612;BME280;7392;52.078;11.650;2023-01-29T07:13:26;101922.91;;;-1.68;100.00
14612;BME280;7392;52.078;11.650;2023-01-29T07:15:57;101916.94;;;-1.67;100.00
14612;BME280;7392;52.078;11.650;2023-01-29T07:18:25;101918.81;;;-1.64;100.00
14612;BME280;7392;52.078;11.650;2023-01-29T07:20:55;101909.50;;;-1.61;100.00
14612;BME280;7392;52.078;11.650;2023-01-29T07:23:23;101895.78;;;-1.58;100.00
14612;BME280;7392;52.078;11.650;2023-01-29T07:25:51;101909.81;;;-1.56;100.00
14612;BME280;7392;52.078;11.650;2023-01-29T07:28:19;101908.19;;;-1.54;100.00
14612;BME280;7392;52.078;11.650;2023-01-29T07:30:46;101911.00;;;-1.51;100.00
14612;BME280;7392;52.078;11.650;2023-01-29T07:33:14;101918.13;;;-1.48;100.00
14612;BME280;7392;52.078;11.650;2023-01-29T07:35:42;101913.00;;;-1.47;100.00
14612;BME280;7392;52.078;11.650;2023-01-29T07:38:11;101911.53;;;-1.43;100.00
14612;BME280;7392;52.078;11.650;2023-01-29T07:40:38;101911.59;;;-1.42;100.00
14612;BME280;7392;52.078;11.650;2023-01-29T07:43:07;101919.63;;;-1.39;100.00
14612;BME280;7392;52.078;11.650;2023-01-29T07:45:38;101921.53;;;-1.36;100.00
14612;BME280;7392;52.078;11.650;2023-01-29T07:48:08;101922.53;;;-1.34;100.00
14612;BME280;7392;52.078;11.650;2023-01-29T07:50:37;101938.38;;;-1.31;100.00
14612;BME280;7392;52.078;11.650;2023-01-29T07:53:05;101942.06;;;-1.27;100.00
14612;BME280;7392;52.078;11.650;2023-01-29T07:55:35;101945.00;;;-1.23;100.00
14612;BME280;7392;52.078;11.650;2023-01-29T07:58:03;101948.50;;;-1.22;100.00
14612;BME280;7392;52.078;11.650;2023-01-29T08:00:30;101945.16;;;-1.20;100.00
14612;BME280;7392;52.078;11.650;2023-01-29T08:03:02;101940.25;;;-1.15;100.00
14612;BME280;7392;52.078;11.650;2023-01-29T08:05:31;101925.59;;;-1.13;100.00
14612;BME280;7392;52.078;11.650;2023-01-29T08:07:58;101910.97;;;-1.11;100.00
14612;BME280;7392;52.078;11.650;2023-01-29T08:10:34;101888.50;;;-1.09;100.00
14612;BME280;7392;52.078;11.650;2023-01-29T08:13:02;101883.47;;;-1.06;100.00
14612;BME280;7392;52.078;11.650;2023-01-29T08:15:30;101887.88;;;-1.05;100.00
14612;BME280;7392;52.078;11.650;2023-01-29T08:17:59;101882.84;;;-1.02;100.00
14612;BME280;7392;52.078;11.650;2023-01-29T08:20:27;101883.06;;;-0.99;100.00
14612;BME280;7392;52.078;11.650;2023-01-29T08:22:59;101890.16;;;-0.96;100.00
14612;BME280;7392;52.078;11.650;2023-01-29T08:25:28;101892.88;;;-0.95;100.00
14612;BME280;7392;52.078;11.650;2023-01-29T08:27:58;101898.19;;;-0.93;100.00
14612;BME280;7392;52.078;11.650;2023-01-29T08:30:26;101887.13;;;-0.89;100.00
14612;BME280;7392;52.078;11.650;2023-01-29T08:32:54;101882.91;;;-0.87;100.00
14612;BME280;7392;52.078;11.650;2023-01-29T08:35:22;101872.75;;;-0.82;100.00
14612;BME280;7392;52.078;11.650;2023-01-29T08:37:54;101871.16;;;-0.80;100.00
14612;BME280;7392;52.078;11.650;2023-01-29T08:40:22;101867.81;;;-0.78;100.00
14612;BME280;7392;52.078;11.650;2023-01-29T08:42:50;101860.19;;;-0.74;100.00
14612;BME280;7392;52.078;11.650;2023-01-29T08:45:19;101861.19;;;-0.72;100.00
14612;BME280;7392;52.078;11.650;2023-01-29T08:47:48;101862.16;;;-0.70;100.00
14612;BME280;7392;52.078;11.650;2023-01-29T08:50:16;101861.47;;;-0.68;100.00
14612;BME280;7392;52.078;11.650;2023-01-29T08:52:44;101859.75;;;-0.67;100.00
14612;BME280;7392;52.078;11.650;2023-01-29T08:55:12;101866.88;;;-0.65;100.00
14612;BME280;7392;52.078;11.650;2023-01-29T08:57:40;101870.47;;;-0.63;100.00
14612;BME280;7392;52.078;11.650;2023-01-29T09:00:09;101871.38;;;-0.62;100.00
14612;BME280;7392;52.078;11.650;2023-01-29T09:02:39;101868.84;;;-0.61;100.00
14612;BME280;7392;52.078;11.650;2023-01-29T09:05:07;101880.28;;;-0.59;100.00
14612;BME280;7392;52.078;11.650;2023-01-29T09:07:35;101873.38;;;-0.58;100.00
14612;BME280;7392;52.078;11.650;2023-01-29T09:10:03;101876.06;;;-0.57;100.00
14612;BME280;7392;52.078;11.650;2023-01-29T09:12:31;101877.06;;;-0.54;100.00
14612;BME280;7392;52.078;11.650;2023-01-29T09:14:59;101875.44;;;-0.52;100.00
14612;BME280;7392;52.078;11.650;2023-01-29T09:17:26;101869.50;;;-0.50;100.00
14612;BME280;7392;52.078;11.650;2023-01-29T09:19:55;101877.34;;;-0.50;100.00
14612;BME280;7392;52.078;11.650;2023-01-29T09:22:24;101871.41;;;-0.47;100.00
14612;BME280;7392;52.078;11.650;2023-01-29T09:24:51;101859.34;;;-0.45;100.00
14612;BME280;7392;52.078;11.650;2023-01-29T09:27:19;101857.63;;;-0.45;100.00
14612;BME280;7392;52.078;11.650;2023-01-29T09:29:46;101862.25;;;-0.41;100.00
14612;BME280;7392;52.078;11.650;2023-01-29T09:32:14;101860.63;;;-0.39;100.00
14612;BME280;7392;52.078;11.650;2023-01-29T09:34:58;101847.66;;;-0.37;100.00
14612;BME280;7392;52.078;11.650;2023-01-29T09:37:26;101846.03;;;-0.35;100.00
14612;BME280;7392;52.078;11.650;2023-01-29T09:39:53;101842.72;;;-0.32;100.00
14612;BME280;7392;52.078;11.650;2023-01-29T09:42:24;101847.28;;;-0.28;100.00
14612;BME280;7392;52.078;11.650;2023-01-29T09:44:59;101841.34;;;-0.26;100.00
14612;BME280;7392;52.078;11.650;2023-01-29T09:47:32;101833.78;;;-0.21;100.00
14612;BME280;7392;52.078;11.650;2023-01-29T09:50:05;101831.34;;;-0.18;100.00
14612;BME280;7392;52.078;11.650;2023-01-29T09:52:35;101829.81;;;-0.14;100.00
14612;BME280;7392;52.078;11.650;2023-01-29T09:55:09;101832.72;;;-0.10;100.00
14612;BME280;7392;52.078;11.650;2023-01-29T09:57:43;101830.44;;;-0.04;100.00
14612;BME280;7392;52.078;11.650;2023-01-29T10:00:14;101821.16;;;0.02;100.00
14612;BME280;7392;52.078;11.650;2023-01-29T10:02:54;101828.38;;;0.06;100.00
14612;BME280;7392;52.078;11.650;2023-01-29T10:05:39;101828.66;;;0.10;100.00
14612;BME280;7392;52.078;11.650;2023-01-29T10:11:16;101828.28;;;0.19;100.00
14612;BME280;7392;52.078;11.650;2023-01-29T10:13:51;101828.59;;;0.25;100.00
14612;BME280;7392;52.078;11.650;2023-01-29T10:16:34;101830.69;;;0.31;100.00
14612;BME280;7392;52.078;11.650;2023-01-29T10:19:17;101817.69;;;0.32;100.00
14612;BME280;7392;52.078;11.650;2023-01-29T10:21:57;101811.91;;;0.38;100.00
14612;BME280;7392;52.078;11.650;2023-01-29T10:24:36;101792.88;;;0.41;100.00
14612;BME280;7392;52.078;11.650;2023-01-29T10:27:12;101802.84;;;0.48;100.00
14612;BME280;7392;52.078;11.650;2023-01-29T10:29:42;101802.41;;;0.55;100.00
14612;BME280;7392;52.078;11.650;2023-01-29T10:32:13;101807.78;;;0.58;100.00
14612;BME280;7392;52.078;11.650;2023-01-29T10:34:45;101800.28;;;0.64;100.00
14612;BME280;7392;52.078;11.650;2023-01-29T10:37:17;101807.63;;;0.71;100.00
14612;BME280;7392;52.078;11.650;2023-01-29T10:39:46;101801.69;;;0.74;100.00
14612;BME280;7392;52.078;11.650;2023-01-29T10:42:23;101797.53;;;0.78;100.00
14612;BME280;7392;52.078;11.650;2023-01-29T10:45:07;101779.22;;;0.78;100.00
14612;BME280;7392;52.078;11.650;2023-01-29T10:48:30;101771.44;;;0.79;100.00
14612;BME280;7392;52.078;11.650;2023-01-29T10:51:09;101781.16;;;0.82;100.00
14612;BME280;7392;52.078;11.650;2023-01-29T10:54:00;101781.25;;;0.83;100.00
14612;BME280;7392;52.078;11.650;2023-01-29T10:56:46;101772.69;;;0.86;100.00
14612;BME280;7392;52.078;11.650;2023-01-29T10:59:31;101769.22;;;0.87;100.00
14612;BME280;7392;52.078;11.650;2023-01-29T11:02:12;101768.50;;;0.89;100.00
14612;BME280;7392;52.078;11.650;2023-01-29T11:04:41;101765.00;;;0.89;100.00
14612;BME280;7392;52.078;11.650;2023-01-29T11:07:09;101768.59;;;0.91;100.00
14612;BME280;7392;52.078;11.650;2023-01-29T11:09:41;101774.00;;;0.94;100.00
14612;BME280;7392;52.078;11.650;2023-01-29T11:12:12;101775.78;;;0.95;100.00
14612;BME280;7392;52.078;11.650;2023-01-29T11:14:43;101767.94;;;0.95;100.00
14612;BME280;7392;52.078;11.650;2023-01-29T11:17:15;101759.09;;;0.93;100.00
14612;BME280;7392;52.078;11.650;2023-01-29T11:19:46;101757.28;;;0.92;100.00
14612;BME280;7392;52.078;11.650;2023-01-29T11:22:15;101738.09;;;0.91;100.00
14612;BME280;7392;52.078;11.650;2023-01-29T11:25:06;101741.59;;;0.92;100.00
14612;BME280;7392;52.078;11.650;2023-01-29T11:27:41;101740.69;;;0.91;100.00
14612;BME280;7392;52.078;11.650;2023-01-29T11:30:15;101738.16;;;0.93;100.00
14612;BME280;7392;52.078;11.650;2023-01-29T11:32:49;101735.56;;;0.93;100.00
14612;BME280;7392;52.078;11.650;2023-01-29T11:35:22;101729.34;;;0.91;100.00
14612;BME280;7392;52.078;11.650;2023-01-29T11:37:50;101730.22;;;0.91;100.00
14612;BME280;7392;52.078;11.650;2023-01-29T11:40:39;101719.78;;;0.91;100.00
14612;BME280;7392;52.078;11.650;2023-01-29T11:43:28;101724.19;;;0.92;100.00
14612;BME280;7392;52.078;11.650;2023-01-29T11:45:59;101716.34;;;0.92;100.00
14612;BME280;7392;52.078;11.650;2023-01-29T11:48:33;101716.34;;;0.92;100.00
14612;BME280;7392;52.078;11.650;2023-01-29T11:51:06;101718.13;;;0.93;100.00
14612;BME280;7392;52.078;11.650;2023-01-29T11:53:37;101704.97;;;0.92;100.00
14612;BME280;7392;52.078;11.650;2023-01-29T11:56:16;101709.38;;;0.93;100.00
14612;BME280;7392;52.078;11.650;2023-01-29T11:58:46;101700.66;;;0.92;100.00
14612;BME280;7392;52.078;11.650;2023-01-29T12:01:17;101689.25;;;0.92;100.00
14612;BME280;7392;52.078;11.650;2023-01-29T12:03:51;101692.81;;;0.92;100.00
14612;BME280;7392;52.078;11.650;2023-01-29T12:06:22;101686.72;;;0.93;100.00
14612;BME280;7392;52.078;11.650;2023-01-29T12:08:54;101684.13;;;0.93;100.00
14612;BME280;7392;52.078;11.650;2023-01-29T12:11:27;101672.75;;;0.93;100.00
14612;BME280;7392;52.078;11.650;2023-01-29T12:13:57;101668.41;;;0.93;100.00
14612;BME280;7392;52.078;11.650;2023-01-29T12:16:30;101668.41;;;0.93;100.00
14612;BME280;7392;52.078;11.650;2023-01-29T12:19:06;101661.41;;;0.92;100.00
14612;BME280;7392;52.078;11.650;2023-01-29T12:21:41;101667.53;;;0.93;100.00
14612;BME280;7392;52.078;11.650;2023-01-29T12:24:22;101665.81;;;0.93;100.00
14612;BME280;7392;52.078;11.650;2023-01-29T12:26:58;101659.75;;;0.95;100.00
14612;BME280;7392;52.078;11.650;2023-01-29T12:29:33;101649.22;;;0.93;100.00
14612;BME280;7392;52.078;11.650;2023-01-29T12:32:06;101652.72;;;0.93;100.00
14612;BME280;7392;52.078;11.650;2023-01-29T12:34:44;101637.84;;;0.92;100.00
14612;BME280;7392;52.078;11.650;2023-01-29T12:37:20;101630.91;;;0.93;100.00
14612;BME280;7392;52.078;11.650;2023-01-29T12:39:49;101632.72;;;0.94;100.00
14612;BME280;7392;52.078;11.650;2023-01-29T12:42:21;101619.63;;;0.94;100.00
14612;BME280;7392;52.078;11.650;2023-01-29T12:44:52;101618.72;;;0.93;100.00
14612;BME280;7392;52.078;11.650;2023-01-29T12:47:26;101623.13;;;0.95;100.00
14612;BME280;7392;52.078;11.650;2023-01-29T12:49:56;101616.16;;;0.95;100.00
14612;BME280;7392;52.078;11.650;2023-01-29T12:52:35;101608.31;;;0.95;100.00
14612;BME280;7392;52.078;11.650;2023-01-29T12:55:07;101608.31;;;0.95;100.00
14612;BME280;7392;52.078;11.650;2023-01-29T12:57:43;101601.34;;;0.96;100.00
14612;BME280;7392;52.078;11.650;2023-01-29T13:00:16;101600.56;;;0.97;100.00
14612;BME280;7392;52.078;11.650;2023-01-29T13:02:49;101609.28;;;0.97;100.00
14612;BME280;7392;52.078;11.650;2023-01-29T13:05:22;101610.22;;;0.98;100.00
14612;BME280;7392;52.078;11.650;2023-01-29T13:07:55;101614.59;;;0.99;100.00
14612;BME280;7392;52.078;11.650;2023-01-29T13:10:28;101608.47;;;0.98;100.00
14612;BME280;7392;52.078;11.650;2023-01-29T13:13:00;101601.44;;;0.97;100.00